Telegraph Creek, Canada
Current Conditions -  °F | °C
As of 5:00 PM on Tuesday 21 Oct 2014 (Local Time) from CYDL Reporting Station
Broken Clouds Broken Clouds  
Wind Chill:   Ceiling: 6000
Heat Index:   Visibility: 9mi
Dew Point:   Wind: 0mph
Humidity: 100%   Direction: NA
Pressure: 29.3"   Gusts: NA
Location:  57.9°N, 131.15°W
Report Text: CYDL 220000Z AUTO 00000KT 9SM BKN060 BKN150 04/04 A2930 RMK SLP938 DENSITY ALT 2700FT
Loading
Personal Weather Stations






























Interactive Weather Map
Tropical Storm Tracking
New forecast layout! Learn more

10-Day Weather Forecast

Advertisements
Track Severe Weather on mobile